メインページ
METAR-TAF:

METAR-TAF

空港 :

フォス・ド・イグアス, パラナ州, ブラジル

フォス・ド・イグアス国際空港

緯度: 25-31S, 経度: 054-35W, 海抜: 180m

現時点の気象観測

当レポートは20分前の19:00(UTC)に作成
南/南東の風 3kt
気温 33°C
湿度 36%
気圧 1012 hPa
視程10km以上
高度3500ftの雲はほとんどない

METAR: SBFI 251900Z 15003KT 9999 FEW035 33/16 Q1012

時間: 16:20 (19:20 UTC)

予報

当レポートは3時間50分前の15:30(UTC)に作成
予報は25日の 18時(UTC)から 26日の 18時(UTC)まで有効
北/北東の風 5kt
視程10km以上
1,500メートル以下は雲なし、積乱雲なし
26日の 12時(UTC)から 26日の 14時(UTC)まで徐々に
南東の風 8kt
視程10km以上
高度3500ftの雲はほとんどない

TAF: SBFI 251530Z 2518/2618 02005KT CAVOK TX33/2519Z TN21/2608Z BECMG 2612/2614 14008KT 9999 FEW035 RMK PEB

4,000以上の空港の気象観測と天気予報(METAR報とTAF報)

利用可能な観測所は地図上に黄色い丸と赤い丸で示す。

丸の上にカーソルを重ねると観測所名を参照できる。

次にクリックすると気象観測と天気予報を参照できる。

マップの切り替え:黒色「×」印の緑ボタンをクリックして拡大、「-」印の緑ボタンをクリックして縮小、緑色の三角印をクリックして隣りの地図に切り替え


METAR-TAF: